createdAt,value
2023-04-28T00:03:39.259Z,10.71
2023-04-28T00:08:41.203Z,10.90
2023-04-28T00:13:44.858Z,11.20
2023-04-28T00:18:47.759Z,11.29
2023-04-28T00:23:49.391Z,11.27
2023-04-28T00:34:55.145Z,11.37
2023-04-28T00:39:56.835Z,11.46
2023-04-28T00:44:58.411Z,11.37
2023-04-28T00:50:01.843Z,11.40
2023-04-28T00:55:05.797Z,10.25
2023-04-28T01:00:09.982Z,10.59
2023-04-28T01:05:14.796Z,10.69
2023-04-28T01:10:16.459Z,10.67
2023-04-28T01:15:19.963Z,10.93
2023-04-28T01:20:22.843Z,11.11
2023-04-28T01:25:25.979Z,11.25
2023-04-28T01:30:29.815Z,11.28
2023-04-28T01:35:31.511Z,10.88
2023-04-28T01:40:35.261Z,11.08
2023-04-28T01:45:36.814Z,11.20
2023-04-28T01:50:38.409Z,11.26
2023-04-28T02:00:59.239Z,11.15
2023-04-28T02:06:02.953Z,10.98
2023-04-28T02:11:06.017Z,11.13
2023-04-28T02:16:08.027Z,11.21
2023-04-28T02:21:09.743Z,11.26
2023-04-28T02:26:16.166Z,11.27
2023-04-28T02:31:17.853Z,10.36
2023-04-28T02:36:19.481Z,10.28
2023-04-28T02:41:22.515Z,10.59
2023-04-28T02:46:24.274Z,10.78
2023-04-28T02:51:25.978Z,10.78
2023-04-28T02:56:29.130Z,10.68
2023-04-28T03:01:30.694Z,10.69
2023-04-28T03:06:32.376Z,10.94
2023-04-28T03:11:35.261Z,10.92
2023-04-28T03:16:36.975Z,10.85
2023-04-28T03:21:42.630Z,11.01
2023-04-28T03:26:45.714Z,10.53
2023-04-28T03:31:49.447Z,10.38
2023-04-28T03:36:53.092Z,10.73
2023-04-28T03:41:56.090Z,10.81
2023-04-28T03:46:57.764Z,10.80
2023-04-28T03:51:59.491Z,10.60
2023-04-28T03:57:02.507Z,10.69
2023-04-28T04:02:04.135Z,10.48
2023-04-28T04:07:06.963Z,10.25
2023-04-28T04:12:09.960Z,10.35
2023-04-28T04:17:11.669Z,10.12
2023-04-28T04:22:15.717Z,10.11
2023-04-28T04:27:18.735Z,10.13
2023-04-28T04:32:20.377Z,10.01
2023-04-28T04:37:24.635Z,9.72
2023-04-28T04:42:27.673Z,9.54
2023-04-28T04:47:29.355Z,9.53
2023-04-28T04:52:31.156Z,9.60
2023-04-28T04:57:34.093Z,9.67
2023-04-28T05:02:35.914Z,9.46
2023-04-28T05:07:37.816Z,9.64
2023-04-28T05:12:40.958Z,9.54
2023-04-28T05:17:42.638Z,9.54
2023-04-28T05:22:44.258Z,9.39
2023-04-28T05:27:47.384Z,9.22
2023-04-28T05:32:49.100Z,9.31
2023-04-28T05:37:51.807Z,9.17
2023-04-28T05:42:54.858Z,9.16
2023-04-28T05:47:56.697Z,9.14
2023-04-28T05:53:00.754Z,8.98
2023-04-28T05:58:03.720Z,9.08
2023-04-28T06:03:07.711Z,9.34
2023-04-28T06:08:09.527Z,9.31
2023-04-28T06:13:19.662Z,9.22
2023-04-28T06:18:21.370Z,9.23
2023-04-28T06:23:22.934Z,9.25
2023-04-28T06:28:26.364Z,9.29
2023-04-28T06:33:30.447Z,9.37
2023-04-28T06:38:32.037Z,9.29
2023-04-28T06:43:35.158Z,9.38
2023-04-28T06:48:40.687Z,9.36
2023-04-28T06:53:42.227Z,9.27
2023-04-28T06:58:46.597Z,9.54
2023-04-28T07:03:48.500Z,9.58
2023-04-28T07:08:51.435Z,9.29
2023-04-28T07:13:54.572Z,9.21
2023-04-28T07:18:56.597Z,9.29
2023-04-28T07:24:00.639Z,9.29
2023-04-28T07:29:03.690Z,9.59
2023-04-28T07:34:05.325Z,9.72
2023-04-28T07:39:10.554Z,9.90
2023-04-28T07:44:15.983Z,9.91
2023-04-28T07:49:18.038Z,9.86
2023-04-28T07:54:19.958Z,10.01
2023-04-28T07:59:23.091Z,9.93
2023-04-28T08:04:27.327Z,10.00
2023-04-28T08:09:29.555Z,10.07
2023-04-28T08:14:34.842Z,10.00
2023-04-28T08:19:36.551Z,10.09
2023-04-28T08:24:38.116Z,10.16
2023-04-28T08:29:41.089Z,10.16
2023-04-28T08:34:42.793Z,10.17
2023-04-28T08:39:44.368Z,10.23
2023-04-28T08:44:48.912Z,10.31
2023-04-28T08:49:53.006Z,10.38
2023-04-28T08:54:58.870Z,10.40
2023-04-28T09:00:01.918Z,10.55
2023-04-28T09:05:07.999Z,10.59
2023-04-28T09:10:19.685Z,10.58
2023-04-28T09:15:35.624Z,10.80
2023-04-28T09:20:37.179Z,10.91
2023-04-28T09:25:38.823Z,11.04
2023-04-28T09:30:41.656Z,11.20
2023-04-28T09:35:44.771Z,11.22
2023-04-28T09:40:55.901Z,11.57
2023-04-28T09:46:00.455Z,11.47
2023-04-28T09:51:05.150Z,11.74
2023-04-28T09:56:09.977Z,11.68
2023-04-28T10:01:13.412Z,11.82
2023-04-28T10:06:15.065Z,11.74
2023-04-28T10:11:17.977Z,12.05
2023-04-28T10:16:21.241Z,12.40
2023-04-28T10:21:28.949Z,12.57
2023-04-28T10:26:54.650Z,12.74
2023-04-28T10:32:22.674Z,12.65
2023-04-28T10:38:10.302Z,12.75
2023-04-28T10:43:13.259Z,12.91
2023-04-28T10:48:16.530Z,12.94
2023-04-28T10:53:19.096Z,12.94
2023-04-28T10:58:33.241Z,12.88
2023-04-28T11:03:49.368Z,12.76
2023-04-28T11:08:54.231Z,12.96
2023-04-28T11:14:20.675Z,13.07
2023-04-28T11:19:25.584Z,13.38
2023-04-28T11:24:30.552Z,13.65
2023-04-28T11:29:33.705Z,13.78
2023-04-28T11:34:39.966Z,13.69
2023-04-28T11:39:41.610Z,13.72
2023-04-28T11:44:50.196Z,13.47
2023-04-28T11:49:53.345Z,13.39
2023-04-28T11:54:55.770Z,13.55
2023-04-28T12:00:12.638Z,13.40
2023-04-28T12:05:15.834Z,13.14
2023-04-28T12:10:17.588Z,13.24
2023-04-28T12:15:21.025Z,12.92
2023-04-28T12:20:42.596Z,13.39
2023-04-28T12:25:46.964Z,13.37
2023-04-28T12:30:48.590Z,13.58
2023-04-28T12:35:59.082Z,13.75
2023-04-28T12:41:02.956Z,13.70
2023-04-28T12:46:05.198Z,13.84
2023-04-28T12:51:08.140Z,13.92
2023-04-28T12:56:16.832Z,13.44
2023-04-28T13:01:18.453Z,13.36
2023-04-28T13:06:21.782Z,13.45
2023-04-28T13:11:23.449Z,13.87
2023-04-28T13:16:25.126Z,14.43
2023-04-28T13:21:28.298Z,14.37
2023-04-28T13:26:30.141Z,14.12
2023-04-28T13:31:33.935Z,14.16
2023-04-28T13:36:36.994Z,14.35
2023-04-28T13:41:40.764Z,14.30
2023-04-28T13:46:44.632Z,14.50
2023-04-28T13:51:49.954Z,14.82
2023-04-28T13:56:51.560Z,15.17
2023-04-28T14:01:54.399Z,15.02
2023-04-28T14:06:58.926Z,15.03
2023-04-28T14:12:02.987Z,15.20
2023-04-28T14:17:04.679Z,14.99
2023-04-28T14:22:08.006Z,14.96
2023-04-28T14:27:09.637Z,14.71
2023-04-28T14:32:11.275Z,14.28
2023-04-28T14:37:14.334Z,14.33
2023-04-28T14:42:18.113Z,14.55
2023-04-28T14:47:19.941Z,14.40
2023-04-28T14:52:23.023Z,14.28
2023-04-28T14:57:25.313Z,14.05
2023-04-28T15:02:28.141Z,14.17
2023-04-28T15:07:31.390Z,13.99
2023-04-28T15:12:36.225Z,14.06
2023-04-28T15:17:37.912Z,14.24
2023-04-28T15:22:48.008Z,14.18
2023-04-28T15:27:49.631Z,14.18
2023-04-28T15:32:51.294Z,13.99
2023-04-28T15:37:54.282Z,14.08
2023-04-28T15:42:56.016Z,14.00
2023-04-28T15:47:57.684Z,14.06
2023-04-28T15:53:01.800Z,13.75
2023-04-28T15:58:03.394Z,13.83
2023-04-28T16:03:05.072Z,13.90
2023-04-28T16:08:10.515Z,13.68
2023-04-28T16:13:14.425Z,14.09
2023-04-28T16:18:16.120Z,13.67
2023-04-28T16:23:21.253Z,13.48
2023-04-28T16:28:23.075Z,13.24
2023-04-28T16:33:24.622Z,13.36
2023-04-28T16:38:27.650Z,13.26
2023-04-28T16:43:31.360Z,13.17
2023-04-28T16:48:32.968Z,13.70
2023-04-28T16:53:38.230Z,13.59
2023-04-28T16:58:39.863Z,13.52
2023-04-28T17:03:41.753Z,13.35
2023-04-28T17:08:46.388Z,13.58
2023-04-28T17:13:48.015Z,12.66
2023-04-28T17:18:54.310Z,12.88
2023-04-28T17:24:00.337Z,12.83
2023-04-28T17:29:01.970Z,13.03
2023-04-28T17:34:04.583Z,13.19
2023-04-28T17:39:07.707Z,13.39
2023-04-28T17:44:09.315Z,13.40
2023-04-28T17:49:18.486Z,13.52
2023-04-28T17:54:21.536Z,13.41
2023-04-28T17:59:23.167Z,13.48
2023-04-28T18:04:24.925Z,13.42
2023-04-28T18:09:28.002Z,13.25
2023-04-28T18:14:32.542Z,13.02
2023-04-28T18:19:34.158Z,13.14
2023-04-28T18:24:39.399Z,13.08
2023-04-28T18:29:48.192Z,13.00
2023-04-28T18:34:49.977Z,12.98
2023-04-28T18:39:56.327Z,13.11
2023-04-28T18:45:00.686Z,12.95
2023-04-28T18:50:02.671Z,13.14
2023-04-28T18:55:06.420Z,13.12
2023-04-28T19:00:08.475Z,13.35
2023-04-28T19:05:10.461Z,13.37
2023-04-28T19:10:13.691Z,13.31
2023-04-28T19:15:16.054Z,13.16
2023-04-28T19:20:20.246Z,13.24
2023-04-28T19:25:23.289Z,13.10
2023-04-28T19:30:25.030Z,13.00
2023-04-28T19:35:26.685Z,12.97
2023-04-28T19:40:29.821Z,12.98
2023-04-28T19:45:31.488Z,13.20
2023-04-28T19:50:33.120Z,13.21
2023-04-28T19:55:36.443Z,13.20
2023-04-28T20:00:41.040Z,13.15
2023-04-28T20:05:42.753Z,13.22
2023-04-28T20:10:45.735Z,13.25
2023-04-28T20:15:47.398Z,13.15
2023-04-28T20:20:52.822Z,13.19
2023-04-28T20:26:03.377Z,13.21
2023-04-28T20:31:09.930Z,13.23
2023-04-28T20:36:21.447Z,13.14
2023-04-28T20:41:24.408Z,13.09
2023-04-28T20:51:42.835Z,12.91
2023-04-28T20:56:47.991Z,12.97
2023-04-28T21:01:49.587Z,12.89
2023-04-28T21:06:53.914Z,12.90
2023-04-28T21:11:56.969Z,12.75
2023-04-28T21:16:58.622Z,12.72
2023-04-28T21:22:00.396Z,12.69
2023-04-28T21:27:03.644Z,12.68
2023-04-28T21:32:05.548Z,12.63
2023-04-28T21:37:07.262Z,12.62
2023-04-28T21:42:10.374Z,12.39
2023-04-28T21:47:11.997Z,12.47
2023-04-28T21:52:13.706Z,12.55
2023-04-28T21:57:16.817Z,12.59
2023-04-28T22:02:18.624Z,12.59
2023-04-28T22:07:20.380Z,12.45
2023-04-28T22:12:25.666Z,12.48
2023-04-28T22:17:29.449Z,12.47
2023-04-28T22:22:31.085Z,12.40
2023-04-28T22:27:34.111Z,12.39
2023-04-28T22:32:35.785Z,12.39
2023-04-28T22:37:37.486Z,12.38
2023-04-28T22:42:42.795Z,12.28
2023-04-28T22:47:47.103Z,12.30
2023-04-28T22:52:48.942Z,12.19
2023-04-28T22:57:54.082Z,12.18
2023-04-28T23:02:57.787Z,12.17
2023-04-28T23:08:02.259Z,12.16
2023-04-28T23:13:08.278Z,12.11
2023-04-28T23:18:09.844Z,12.10
2023-04-28T23:23:13.717Z,12.10
2023-04-28T23:28:16.801Z,12.09
2023-04-28T23:33:20.250Z,12.01
2023-04-28T23:38:21.834Z,11.89
2023-04-28T23:43:31.105Z,12.06
2023-04-28T23:48:34.003Z,11.96
2023-04-28T23:53:35.721Z,11.97
2023-04-28T23:58:41.077Z,11.88
